KBIHKMMH

Guest
Details From KBIH - EASTERN SIERRA RGNL
To KMMH - Mammoth Yosemite
Flight Number -
Tags generated
Created
Modified
Stats Distance 27 nm / 50 km
Max Altitude 0 ft / 0 m
Waypoints 3
Social Downloads 1
Likes 0
Share VATSIM

Download

Looking for another format? Having issues loading an existing format? Contact us
Advertisement - Login to hide

Notes

Basic altitude profile: - Ascent Rate: 2500ft/min - Ascent Speed: 250kts - Cruise Altitude: 35000ft - Cruise Speed: 420kts - Descent Rate: 1500ft/min - Descent Speed: 250kts Options: - Use NATs: yes - Use PACOTS: yes - Use low airways: yes - Use high airways: yes

Route

KBIH BIH KMMH

ID Type Via Altitude Latitude Longitude Leg Dist Tot Dist Heading (true) Name
O KBIH APT - 0 ft / 0 m 37.37314˚ -118.36353˚ - 0 nm - EASTERN SIERRA RGNL
BIH VOR - 0 ft / 0 m 37.37694˚ -118.36653˚ 0 nm 0 nm 328° / 328° BISHOP VOR-DME
O KMMH APT - 0 ft / 0 m 37.62405˚ -118.83874˚ 26 nm 27 nm 304° / 303° Mammoth Yosemite

Altitude Profile

Advertisement - Login to hide

KBIH

Details ICAO KBIH
Name EASTERN SIERRA RGNL
Region United States
Timezone America/Los_Angeles (UTC-8.0)
Stats Elevation 4,124 ft / 1,257 m (AMSL)
Location 37.373143° -118.363525°
Runways 3
Magnetic Variation 12.675° E

METAR

KBIH 110856Z AUTO 33007KT 10SM CLR M03/M19 A3043 RMK AO2 SLP292 T10331189 58001 TSNO

Decode

TAF

TAF KBIH 110520Z 1106/1206 33008KT P6SM SCT250 FM111700 VRB05KT P6SM BKN250 FM120200 33008KT P6SM BKN250

Decode

Departure Runways

ID Width Length Bearing (true) Bearing (mag) Surface Threshold Offset Overrun Length
07 100 ft / 30 m 5,554 ft / 1,693 m 90.49° 77.82° Asphalt 0 ft / 0 m 0 ft / 0 m
12 100 ft / 30 m 7,497 ft / 2,285 m 135.61° 122.94° Asphalt 0 ft / 0 m 0 ft / 0 m
16 100 ft / 30 m 5,611 ft / 1,710 m 180.49° 167.82° Asphalt 0 ft / 0 m 0 ft / 0 m
25 100 ft / 30 m 5,554 ft / 1,693 m 270.51° 257.84° Asphalt 0 ft / 0 m 0 ft / 0 m
30 100 ft / 30 m 7,497 ft / 2,285 m 315.62° 302.95° Asphalt 0 ft / 0 m 0 ft / 0 m
34 100 ft / 30 m 5,611 ft / 1,710 m 0.49° 347.82° Asphalt 0 ft / 0 m 0 ft / 0 m

KMMH

Details ICAO KMMH (MMH)
Name Mammoth Yosemite
Region United States
Timezone America/Los_Angeles (UTC-8.0)
Stats Elevation 7,128 ft / 2,173 m (AMSL)
Location 37.624049° -118.838737°
Runways 1
Magnetic Variation 12.824° E

METAR

KMMH 110915Z AUTO 00000KT 10SM CLR M10/M17 A3051 RMK AO2 T10971175

Decode

TAF

TAF KMMH 110521Z 1106/1206 VRB03KT P6SM FEW250

Decode

Destination Runways

ID Width Length Bearing (true) Bearing (mag) Surface Threshold Offset Overrun Length
09 98 ft / 30 m 6,987 ft / 2,130 m 109.02° 96.20° Asphalt 0 ft / 0 m 2,999 ft / 914 m
27 98 ft / 30 m 6,987 ft / 2,130 m 289.03° 276.21° Asphalt 0 ft / 0 m 0 ft / 0 m